Time;durP1;ratioP1;P1;durP2;ratioP2;P2;SDS_P1;SDS_P2;PMS_P1;PMS_P2;Temp;Humidity;BMP_temperature;BMP_pressure;BME280_temperature;BME280_humidity;BME280_pressure;Samples;Min_cycle;Max_cycle;Signal;HPM_P1;HPM_P2
2021/03/31 00:01:35;;;;;;;1.50;1.20;;;11.40;77.80;;;;;;4985479;28;20496;-78
2021/03/31 00:04:01;;;;;;;1.50;1.20;;;11.40;77.90;;;;;;5003349;28;20481;-76
2021/03/31 00:06:27;;;;;;;1.50;1.17;;;11.30;77.70;;;;;;4984513;28;20532;-77
2021/03/31 00:08:54;;;;;;;1.50;1.20;;;11.30;78.00;;;;;;5002861;28;20457;-77
2021/03/31 00:11:20;;;;;;;1.50;1.10;;;11.30;78.00;;;;;;4988805;28;20479;-76
2021/03/31 00:13:47;;;;;;;1.50;1.10;;;11.20;78.50;;;;;;5003458;28;20469;-76
2021/03/31 00:16:14;;;;;;;1.50;1.10;;;11.20;79.50;;;;;;4978440;28;20480;-75
2021/03/31 00:18:40;;;;;;;1.50;1.10;;;11.20;78.80;;;;;;5000477;28;21255;-77
2021/03/31 00:21:07;;;;;;;1.50;1.10;;;11.10;79.40;;;;;;4986801;28;20499;-76
2021/03/31 00:23:33;;;;;;;1.50;1.10;;;11.10;79.00;;;;;;4997333;28;20465;-76
2021/03/31 00:26:00;;;;;;;1.50;1.10;;;11.10;80.50;;;;;;4989774;28;20531;-75
2021/03/31 00:28:27;;;;;;;1.50;1.10;;;11.10;79.40;;;;;;5000914;28;20464;-77
2021/03/31 00:30:55;;;;;;;1.50;1.10;;;11.00;80.00;;;;;;4981404;28;20493;-75
2021/03/31 00:33:21;;;;;;;1.50;1.10;;;11.00;80.00;;;;;;5001333;28;20460;-77
2021/03/31 00:35:48;;;;;;;1.50;1.10;;;11.00;79.50;;;;;;4974577;28;20468;-75
2021/03/31 00:38:15;;;;;;;1.50;1.10;;;10.90;80.10;;;;;;5001567;28;20489;-76
2021/03/31 00:40:42;;;;;;;1.50;1.10;;;10.90;81.00;;;;;;4988791;28;20516;-77
2021/03/31 00:43:10;;;;;;;1.50;1.10;;;10.90;80.40;;;;;;4990452;28;20481;-76
2021/03/31 00:45:36;;;;;;;1.50;1.10;;;10.90;80.50;;;;;;4987595;28;20476;-77
2021/03/31 00:48:04;;;;;;;1.50;1.10;;;10.80;80.90;;;;;;4993739;28;20484;-77
2021/03/31 00:50:30;;;;;;;1.50;1.10;;;10.80;80.80;;;;;;4990762;28;20488;-74
2021/03/31 00:52:59;;;;;;;1.50;1.20;;;10.80;80.80;;;;;;4992748;28;20503;-77
2021/03/31 00:55:27;;;;;;;1.50;1.10;;;10.70;79.90;;;;;;5001410;28;20468;-74
2021/03/31 00:57:54;;;;;;;1.50;1.20;;;10.70;80.50;;;;;;4991860;28;20542;-76
2021/03/31 01:00:21;;;;;;;1.50;1.20;;;10.70;80.90;;;;;;4987631;28;20485;-76
2021/03/31 01:02:47;;;;;;;1.50;1.17;;;10.70;79.70;;;;;;4993720;28;20626;-74
2021/03/31 01:05:17;;;;;;;1.50;1.20;;;10.70;79.50;;;;;;4992394;28;20465;-76
2021/03/31 01:07:44;;;;;;;1.50;1.10;;;10.70;79.70;;;;;;4988058;28;20479;-78
2021/03/31 01:10:11;;;;;;;2.60;2.40;;;10.70;80.00;;;;;;4982166;28;21160;-77
2021/03/31 01:12:53;;;;;;;1.50;1.20;;;10.70;80.90;;;;;;4992050;28;20509;-76
2021/03/31 01:15:24;;;;;;;1.50;1.10;;;10.70;81.00;;;;;;4984970;28;20515;-78
2021/03/31 01:17:57;;;;;;;1.50;1.20;;;10.60;80.60;;;;;;4995382;28;20564;-76
2021/03/31 01:20:44;;;;;;;1.50;1.10;;;10.60;80.70;;;;;;4989478;28;20485;-75
2021/03/31 01:23:57;;;;;;;1.50;1.20;;;10.50;82.10;;;;;;4980161;28;20473;-77
2021/03/31 01:26:27;;;;;;;1.50;1.20;;;10.50;82.90;;;;;;4988106;28;20475;-77
2021/03/31 01:29:20;;;;;;;1.50;1.20;;;10.50;81.60;;;;;;4999871;28;20479;-77
2021/03/31 01:31:58;;;;;;;1.50;1.20;;;10.40;79.90;;;;;;4985806;28;21028;-76
2021/03/31 01:34:45;;;;;;;1.50;1.10;;;10.40;81.60;;;;;;4995809;28;20995;-77
2021/03/31 01:37:18;;;;;;;1.50;1.10;;;10.40;80.80;;;;;;4984622;28;20488;-75
2021/03/31 01:39:46;;;;;;;1.50;1.10;;;10.30;81.10;;;;;;4994040;28;20485;-76
2021/03/31 01:42:14;;;;;;;1.50;1.20;;;10.30;82.30;;;;;;4985506;28;20480;-76
2021/03/31 01:44:43;;;;;;;1.50;1.20;;;10.20;82.20;;;;;;4996972;28;20461;-76
2021/03/31 01:47:12;;;;;;;1.50;1.20;;;10.20;82.10;;;;;;4992407;28;20483;-75
2021/03/31 01:49:39;;;;;;;1.50;1.20;;;10.20;82.20;;;;;;4996890;28;20485;-75
2021/03/31 01:52:09;;;;;;;1.50;1.10;;;10.20;81.80;;;;;;4982028;28;20492;-76
2021/03/31 01:54:40;;;;;;;1.50;1.20;;;10.20;82.40;;;;;;4994938;28;20465;-75
2021/03/31 01:57:08;;;;;;;1.50;1.20;;;10.10;83.40;;;;;;4982015;28;21149;-77
2021/03/31 01:59:36;;;;;;;1.50;1.20;;;10.10;83.20;;;;;;4998389;28;20569;-76
2021/03/31 02:02:04;;;;;;;1.50;1.20;;;10.10;83.20;;;;;;4984168;28;20488;-77
2021/03/31 02:04:33;;;;;;;1.57;1.40;;;10.10;83.00;;;;;;4995268;28;20467;-76
2021/03/31 02:07:04;;;;;;;1.50;1.20;;;10.10;83.00;;;;;;4982647;28;20496;-76
2021/03/31 02:09:32;;;;;;;1.50;1.17;;;10.00;83.30;;;;;;4997804;28;20839;-77
2021/03/31 02:12:01;;;;;;;1.50;1.20;;;10.00;83.30;;;;;;4986391;28;20484;-76
2021/03/31 02:14:28;;;;;;;1.50;1.20;;;10.00;82.40;;;;;;4996276;28;20465;-76
2021/03/31 02:16:56;;;;;;;1.50;1.20;;;10.00;82.60;;;;;;4987474;28;20480;-75
2021/03/31 02:19:23;;;;;;;1.50;1.10;;;10.00;82.30;;;;;;4996369;28;20465;-77
2021/03/31 02:21:50;;;;;;;1.50;1.10;;;10.00;82.10;;;;;;4979029;28;20480;-75
2021/03/31 02:24:19;;;;;;;1.50;1.10;;;10.00;82.10;;;;;;4997950;28;20457;-77
2021/03/31 02:26:47;;;;;;;1.50;1.20;;;10.00;82.20;;;;;;4981270;28;20476;-76
2021/03/31 02:29:13;;;;;;;1.50;1.30;;;10.00;82.60;;;;;;4994987;28;20468;-76
2021/03/31 02:31:42;;;;;;;1.50;1.20;;;10.00;82.30;;;;;;4986824;28;20488;-77
2021/03/31 02:34:09;;;;;;;1.50;1.10;;;10.00;81.90;;;;;;4997902;28;20948;-76
2021/03/31 02:36:38;;;;;;;1.50;1.10;;;10.00;81.60;;;;;;4979907;28;20488;-78
2021/03/31 02:39:05;;;;;;;1.50;1.17;;;10.00;81.70;;;;;;4997743;28;20972;-77
2021/03/31 02:41:37;;;;;;;1.50;1.10;;;10.00;81.20;;;;;;4984672;28;21270;-77
2021/03/31 02:44:06;;;;;;;1.50;1.20;;;10.10;80.50;;;;;;5000710;28;20919;-76
2021/03/31 02:46:34;;;;;;;1.50;1.20;;;10.20;79.60;;;;;;4989915;28;20483;-74
2021/03/31 02:49:01;;;;;;;1.50;1.20;;;10.30;79.30;;;;;;4990417;28;20844;-75
2021/03/31 02:51:32;;;;;;;1.50;1.17;;;10.40;79.10;;;;;;4987906;28;20488;-76
2021/03/31 02:54:00;;;;;;;1.50;1.10;;;10.50;78.50;;;;;;4995642;28;20470;-77
2021/03/31 02:56:29;;;;;;;1.50;1.17;;;10.60;79.20;;;;;;4989082;28;20487;-78
2021/03/31 02:58:57;;;;;;;1.50;1.20;;;10.60;79.50;;;;;;4993362;28;20469;-77
2021/03/31 03:01:25;;;;;;;1.50;1.10;;;10.60;79.40;;;;;;4982298;28;20488;-74
2021/03/31 03:03:52;;;;;;;1.50;1.10;;;10.60;79.60;;;;;;5000287;28;20469;-78
2021/03/31 03:06:18;;;;;;;1.50;1.10;;;10.50;79.50;;;;;;4981844;28;20488;-77
2021/03/31 03:08:45;;;;;;;1.50;1.10;;;10.50;79.30;;;;;;4997726;28;20465;-77
2021/03/31 03:11:12;;;;;;;1.50;1.20;;;10.60;78.80;;;;;;4979403;28;20537;-76
2021/03/31 03:13:41;;;;;;;1.50;1.20;;;10.70;78.20;;;;;;5002644;28;21210;-76
2021/03/31 03:16:08;;;;;;;1.50;1.10;;;10.70;78.30;;;;;;4982318;28;20498;-76
2021/03/31 03:18:35;;;;;;;1.77;1.67;;;10.70;78.10;;;;;;5003460;28;20567;-77
2021/03/31 03:21:02;;;;;;;1.50;1.10;;;10.80;77.90;;;;;;4990883;28;20492;-78
2021/03/31 03:23:29;;;;;;;1.50;1.20;;;10.80;77.60;;;;;;4999630;28;20968;-77
2021/03/31 03:25:59;;;;;;;1.50;1.20;;;10.90;77.20;;;;;;4984347;28;21184;-78
2021/03/31 03:28:28;;;;;;;1.50;1.20;;;11.00;77.00;;;;;;5002548;28;20461;-77
2021/03/31 03:30:55;;;;;;;1.50;1.20;;;11.10;76.70;;;;;;4984690;28;20481;-76
2021/03/31 03:33:23;;;;;;;1.50;1.10;;;11.10;76.50;;;;;;5002050;28;20465;-77
2021/03/31 03:35:50;;;;;;;1.50;1.10;;;11.20;76.50;;;;;;4979511;28;20464;-77
2021/03/31 03:38:17;;;;;;;1.50;1.30;;;11.20;76.20;;;;;;4998573;28;20484;-76
2021/03/31 03:40:45;;;;;;;1.50;1.10;;;11.20;76.10;;;;;;4994329;28;20499;-78
2021/03/31 03:43:14;;;;;;;1.50;1.10;;;11.30;75.90;;;;;;4998176;28;20484;-77
2021/03/31 03:45:42;;;;;;;1.50;1.10;;;11.30;76.00;;;;;;4993072;28;20476;-76
2021/03/31 03:48:09;;;;;;;1.50;1.10;;;11.30;76.00;;;;;;4998660;28;20539;-77
2021/03/31 03:50:36;;;;;;;1.50;1.03;;;11.40;76.40;;;;;;4989824;28;20492;-78
2021/03/31 03:53:03;;;;;;;1.50;1.10;;;11.30;76.90;;;;;;4998387;28;20492;-78
2021/03/31 03:55:33;;;;;;;1.50;1.10;;;11.20;77.50;;;;;;5000803;28;20470;-77
2021/03/31 03:58:06;;;;;;;1.50;1.17;;;11.20;77.30;;;;;;4996162;28;20487;-76
2021/03/31 04:00:32;;;;;;;1.50;1.07;;;11.10;77.70;;;;;;4990945;28;20566;-76
2021/03/31 04:02:59;;;;;;;1.50;1.20;;;11.00;78.70;;;;;;4991483;28;20510;-76
2021/03/31 04:05:26;;;;;;;1.50;1.20;;;10.90;79.30;;;;;;4993892;28;20487;-75
2021/03/31 04:07:53;;;;;;;1.47;1.07;;;10.70;79.50;;;;;;4988348;28;20499;-76
2021/03/31 04:10:22;;;;;;;1.50;1.20;;;10.60;80.40;;;;;;4991660;28;20513;-76
2021/03/31 04:12:50;;;;;;;1.50;1.20;;;10.50;80.70;;;;;;4992548;28;20494;-77
2021/03/31 04:15:18;;;;;;;1.50;1.10;;;10.50;81.10;;;;;;5002360;28;20470;-76
2021/03/31 04:17:45;;;;;;;1.50;1.20;;;10.40;80.30;;;;;;4991638;28;20487;-76
2021/03/31 04:20:13;;;;;;;1.50;1.20;;;10.30;80.70;;;;;;4995924;28;20931;-76
2021/03/31 04:22:40;;;;;;;1.50;1.20;;;10.20;80.60;;;;;;4987609;28;20484;-76
2021/03/31 04:25:09;;;;;;;1.50;1.10;;;10.20;80.90;;;;;;4988382;28;20577;-76
2021/03/31 04:27:37;;;;;;;1.50;1.10;;;10.10;80.50;;;;;;4997129;28;21018;-77
2021/03/31 04:30:05;;;;;;;1.50;1.20;;;10.10;81.30;;;;;;4999277;28;21064;-74
2021/03/31 04:32:32;;;;;;;1.50;1.10;;;10.00;81.90;;;;;;4987989;28;20481;-75
2021/03/31 04:35:01;;;;;;;1.50;1.17;;;10.00;82.10;;;;;;4991797;28;20476;-76
2021/03/31 04:37:27;;;;;;;1.50;1.30;;;10.00;82.70;;;;;;4992419;28;20536;-76
2021/03/31 04:39:53;;;;;;;1.50;1.10;;;10.00;82.40;;;;;;4993269;28;20498;-76
2021/03/31 04:42:20;;;;;;;1.50;1.20;;;9.90;83.00;;;;;;4987195;28;20476;-76
2021/03/31 04:44:47;;;;;;;1.50;1.20;;;9.90;83.00;;;;;;4993127;28;20472;-75
2021/03/31 04:47:13;;;;;;;1.50;1.17;;;9.80;83.50;;;;;;4990234;28;20483;-75
2021/03/31 04:49:39;;;;;;;1.50;1.10;;;9.80;83.70;;;;;;4998605;28;20488;-76
2021/03/31 04:52:06;;;;;;;1.50;1.10;;;9.80;83.40;;;;;;4988281;28;20486;-75
2021/03/31 04:54:32;;;;;;;1.50;1.30;;;9.70;83.30;;;;;;4999953;28;20560;-74
2021/03/31 04:56:59;;;;;;;1.50;1.20;;;9.70;82.80;;;;;;4991711;28;20488;-77
2021/03/31 04:59:25;;;;;;;1.50;1.10;;;9.70;83.60;;;;;;4995895;28;20525;-76
2021/03/31 05:01:52;;;;;;;1.50;1.20;;;9.60;83.80;;;;;;4992724;28;20488;-73
2021/03/31 05:04:18;;;;;;;1.50;1.20;;;9.60;84.10;;;;;;5001388;28;20461;-76
2021/03/31 05:06:44;;;;;;;1.50;1.13;;;9.50;83.30;;;;;;4985468;28;20484;-76
2021/03/31 05:09:11;;;;;;;1.50;1.20;;;9.50;83.70;;;;;;4996265;28;20473;-75
2021/03/31 05:11:37;;;;;;;1.50;1.30;;;9.50;83.70;;;;;;4984009;28;20484;-76
2021/03/31 05:14:04;;;;;;;1.50;1.17;;;9.50;83.00;;;;;;5000594;28;20460;-75
2021/03/31 05:16:30;;;;;;;1.50;1.10;;;9.50;84.60;;;;;;4982655;28;20480;-76
2021/03/31 05:18:58;;;;;;;1.50;1.20;;;9.40;83.70;;;;;;5003094;28;20483;-77
2021/03/31 05:21:24;;;;;;;1.50;1.20;;;9.40;84.20;;;;;;4985508;28;20496;-77
2021/03/31 05:23:50;;;;;;;1.50;1.20;;;9.40;84.10;;;;;;5004908;28;20843;-76
2021/03/31 05:26:17;;;;;;;1.50;1.20;;;9.40;84.00;;;;;;4977278;28;20501;-76
2021/03/31 05:28:43;;;;;;;1.50;1.20;;;9.40;83.50;;;;;;5000255;28;20452;-75
2021/03/31 05:31:10;;;;;;;1.50;1.20;;;9.50;82.20;;;;;;4985372;28;20898;-77
2021/03/31 05:33:36;;;;;;;1.50;1.20;;;9.50;82.10;;;;;;4999488;28;20461;-74
2021/03/31 05:36:03;;;;;;;1.50;1.10;;;9.60;82.60;;;;;;4976737;28;20837;-76
2021/03/31 05:38:30;;;;;;;1.50;1.20;;;9.60;82.50;;;;;;5001035;28;20492;-75
2021/03/31 05:40:57;;;;;;;1.50;1.20;;;9.60;82.40;;;;;;4982651;28;20497;-77
2021/03/31 05:43:23;;;;;;;1.50;1.20;;;9.60;83.10;;;;;;5000510;28;20480;-76
2021/03/31 05:45:52;;;;;;;1.50;1.20;;;9.70;82.00;;;;;;4988264;28;20465;-75
2021/03/31 05:48:19;;;;;;;1.50;1.20;;;9.70;82.50;;;;;;4997326;28;20461;-74
2021/03/31 05:50:45;;;;;;;1.50;1.07;;;9.70;82.90;;;;;;4991449;28;20871;-76
2021/03/31 05:53:12;;;;;;;1.50;1.13;;;9.70;83.20;;;;;;4973592;28;20874;-76
2021/03/31 05:55:38;;;;;;;1.50;1.20;;;9.70;83.10;;;;;;4993877;28;20457;-77
2021/03/31 05:58:05;;;;;;;1.50;1.13;;;9.70;83.90;;;;;;4989083;28;20493;-75
2021/03/31 06:00:33;;;;;;;1.50;1.20;;;9.70;83.80;;;;;;4981010;28;20568;-77
2021/03/31 06:03:02;;;;;;;1.50;1.20;;;9.70;84.40;;;;;;4992078;28;20483;-76
2021/03/31 06:05:31;;;;;;;1.50;1.20;;;9.70;84.50;;;;;;4985273;28;20497;-76
2021/03/31 06:07:57;;;;;;;1.50;1.20;;;9.80;84.60;;;;;;4991469;28;20503;-75
2021/03/31 06:10:26;;;;;;;1.50;1.20;;;9.90;85.80;;;;;;4993116;28;20523;-73
2021/03/31 06:12:57;;;;;;;1.50;1.10;;;10.10;86.30;;;;;;4999372;28;21035;-76
2021/03/31 06:15:29;;;;;;;1.50;1.20;;;10.30;86.40;;;;;;4984096;28;20473;-74
2021/03/31 06:17:56;;;;;;;1.50;1.20;;;10.50;85.60;;;;;;4989930;28;20484;-75
2021/03/31 06:20:41;;;;;;;1.50;1.27;;;10.80;85.40;;;;;;4993012;28;20485;-73
2021/03/31 06:23:13;;;;;;;1.50;1.10;;;11.10;84.60;;;;;;4994307;28;20890;-75
2021/03/31 06:25:46;;;;;;;1.50;1.10;;;11.40;81.40;;;;;;4988151;28;20836;-74
2021/03/31 06:28:13;;;;;;;1.50;1.20;;;11.70;81.70;;;;;;4985918;28;20477;-74
2021/03/31 06:30:40;;;;;;;1.50;1.10;;;12.00;79.10;;;;;;4987296;28;21135;-74
2021/03/31 06:33:07;;;;;;;1.50;1.10;;;12.40;76.90;;;;;;4995465;28;20508;-75
2021/03/31 06:35:33;;;;;;;1.50;1.10;;;12.80;75.50;;;;;;4999339;28;20845;-74
2021/03/31 06:38:06;;;;;;;1.50;1.13;;;13.10;74.20;;;;;;4991498;28;20483;-76
2021/03/31 06:40:38;;;;;;;1.50;1.10;;;13.40;73.70;;;;;;5360124;22;20462;-75
2021/03/31 06:43:16;;;;;;;1.50;1.10;;;13.60;72.50;;;;;;5014995;22;20496;-77
2021/03/31 06:45:51;;;;;;;1.50;1.00;;;13.90;72.20;;;;;;4967441;28;20561;-76
2021/03/31 06:48:18;;;;;;;1.50;1.07;;;14.10;71.50;;;;;;4955267;28;20987;-77
2021/03/31 06:50:44;;;;;;;1.50;1.10;;;14.30;70.90;;;;;;4965394;28;20834;-76
2021/03/31 06:53:10;;;;;;;1.50;1.00;;;14.50;71.20;;;;;;4988505;28;20485;-77
2021/03/31 06:55:36;;;;;;;1.50;1.00;;;14.70;70.50;;;;;;4977056;28;20516;-76
2021/03/31 06:58:06;;;;;;;1.50;1.00;;;15.00;70.00;;;;;;5000512;28;20506;-78
2021/03/31 07:00:35;;;;;;;1.50;1.00;;;15.10;69.10;;;;;;4972526;28;20917;-75
2021/03/31 07:03:04;;;;;;;1.50;1.10;;;15.30;69.10;;;;;;4992523;28;20510;-76
2021/03/31 07:05:32;;;;;;;1.50;1.10;;;15.40;69.00;;;;;;4978798;28;20908;-78
2021/03/31 07:08:03;;;;;;;1.50;1.00;;;15.60;68.30;;;;;;4992860;28;20571;-76
2021/03/31 07:10:29;;;;;;;1.50;1.00;;;15.70;67.90;;;;;;4970054;28;20461;-78
2021/03/31 07:12:56;;;;;;;1.50;1.10;;;15.90;67.10;;;;;;4990276;28;20495;-77
2021/03/31 07:15:24;;;;;;;1.50;1.10;;;16.00;66.80;;;;;;4972392;28;20476;-77
2021/03/31 07:17:54;;;;;;;1.50;1.00;;;16.20;67.10;;;;;;4989878;28;20494;-76
2021/03/31 07:20:21;;;;;;;1.50;1.00;;;16.40;66.30;;;;;;4974076;28;20471;-77
2021/03/31 07:22:47;;;;;;;1.50;0.90;;;16.50;66.20;;;;;;4991810;28;20487;-77
2021/03/31 07:25:16;;;;;;;1.50;1.00;;;16.60;65.70;;;;;;4972596;28;20524;-77
2021/03/31 07:27:43;;;;;;;1.50;1.00;;;16.70;65.50;;;;;;4991372;28;20487;-79
2021/03/31 07:30:13;;;;;;;1.50;1.00;;;16.90;65.10;;;;;;4970101;28;20481;-74
2021/03/31 07:32:50;;;;;;;1.50;1.00;;;17.00;65.00;;;;;;4988061;28;20499;-78
2021/03/31 07:35:20;;;;;;;1.50;1.00;;;17.10;64.70;;;;;;4971169;28;20465;-77
2021/03/31 07:37:47;;;;;;;1.50;0.93;;;17.20;64.70;;;;;;4991439;28;20491;-77
2021/03/31 07:40:15;;;;;;;1.50;1.00;;;17.40;64.30;;;;;;4973828;28;20470;-75
2021/03/31 07:42:45;;;;;;;1.50;1.00;;;17.60;63.70;;;;;;4995563;28;20487;-76
2021/03/31 07:45:16;;;;;;;1.50;1.00;;;17.80;63.60;;;;;;4971200;28;20471;-78
2021/03/31 07:47:43;;;;;;;1.50;1.00;;;17.90;63.00;;;;;;4990948;28;21014;-77
2021/03/31 07:50:12;;;;;;;1.50;1.00;;;18.10;63.10;;;;;;4967869;28;20502;-77
2021/03/31 07:53:02;;;;;;;1.50;0.90;;;18.30;62.60;;;;;;4985984;28;20497;-78
2021/03/31 07:55:40;;;;;;;1.50;0.90;;;18.40;62.20;;;;;;4978088;28;21035;-76
2021/03/31 07:58:25;;;;;;;1.50;0.90;;;18.50;62.10;;;;;;4996323;28;20489;-78
2021/03/31 08:01:16;;;;;;;1.50;1.00;;;18.60;61.60;;;;;;4963260;28;20553;-77
2021/03/31 08:03:42;;;;;;;1.50;1.00;;;18.70;61.60;;;;;;4970893;28;20996;-77
2021/03/31 08:06:22;;;;;;;1.50;0.97;;;18.80;61.50;;;;;;4974972;28;20492;-77
2021/03/31 08:08:58;;;;;;;1.50;1.00;;;19.00;60.90;;;;;;4980453;28;20509;-77
2021/03/31 08:11:53;;;;;;;1.50;1.00;;;19.10;60.80;;;;;;4972646;28;20804;-78
2021/03/31 08:14:40;;;;;;;1.50;0.90;;;19.20;60.80;;;;;;4976537;28;20477;-77
2021/03/31 08:17:07;;;;;;;1.50;1.07;;;19.30;61.30;;;;;;4980462;28;20484;-77
2021/03/31 08:19:38;;;;;;;1.50;0.93;;;19.40;60.60;;;;;;4980095;28;20473;-75
2021/03/31 08:22:33;;;;;;;1.50;0.90;;;19.50;60.80;;;;;;4978012;28;20563;-77
2021/03/31 08:25:11;;;;;;;1.50;0.90;;;19.70;59.80;;;;;;4970627;28;21027;-76
2021/03/31 08:27:54;;;;;;;1.50;0.90;;;19.80;60.60;;;;;;4984276;28;20476;-76
2021/03/31 08:30:21;;;;;;;1.50;0.90;;;20.00;60.70;;;;;;4968331;28;21078;-77
2021/03/31 08:32:47;;;;;;;1.50;1.00;;;20.10;61.00;;;;;;4992512;28;20496;-77
2021/03/31 08:35:15;;;;;;;1.47;0.90;;;20.30;60.10;;;;;;4965954;28;20469;-76
2021/03/31 08:37:43;;;;;;;1.50;0.90;;;20.60;59.80;;;;;;4990328;28;20515;-76
2021/03/31 08:40:11;;;;;;;1.50;0.97;;;20.70;59.40;;;;;;4968990;28;20528;-76
2021/03/31 08:42:37;;;;;;;1.50;1.00;;;20.80;59.10;;;;;;4987554;28;20882;-76
2021/03/31 08:45:05;;;;;;;1.50;0.90;;;21.00;59.10;;;;;;4972054;28;20482;-77
2021/03/31 08:47:33;;;;;;;1.50;0.90;;;21.20;58.50;;;;;;4992289;28;21167;-78
2021/03/31 08:50:02;;;;;;;1.50;0.90;;;21.10;57.70;;;;;;4975431;28;20470;-77
2021/03/31 08:52:33;;;;;;;1.50;0.90;;;21.20;59.00;;;;;;4986088;28;20483;-76
2021/03/31 08:55:03;;;;;;;1.50;1.00;;;21.30;58.30;;;;;;4974107;28;20501;-78
2021/03/31 08:57:31;;;;;;;1.50;0.90;;;21.30;58.40;;;;;;4988979;28;20476;-78
2021/03/31 08:59:59;;;;;;;1.50;0.90;;;21.40;58.30;;;;;;4974356;28;20470;-77
2021/03/31 09:02:27;;;;;;;1.50;0.90;;;21.50;58.80;;;;;;4981919;28;20865;-78
2021/03/31 09:04:54;;;;;;;1.50;0.90;;;21.60;57.80;;;;;;4976906;28;20488;-77
2021/03/31 09:07:21;;;;;;;1.90;1.50;;;21.80;58.50;;;;;;4980158;28;21054;-76
2021/03/31 09:09:48;;;;;;;1.50;0.90;;;22.00;58.00;;;;;;4966177;28;20478;-76
2021/03/31 09:12:16;;;;;;;1.50;0.90;;;22.20;56.80;;;;;;4985311;28;20522;-76
2021/03/31 09:14:45;;;;;;;1.47;0.90;;;22.30;56.80;;;;;;4976284;28;20473;-77
2021/03/31 09:17:16;;;;;;;1.60;1.20;;;22.30;56.80;;;;;;4976581;28;20500;-77
2021/03/31 09:19:43;;;;;;;1.47;0.90;;;22.40;56.40;;;;;;4975707;28;20465;-77
2021/03/31 09:22:11;;;;;;;1.83;1.50;;;22.40;56.90;;;;;;4982705;28;20500;-75
2021/03/31 09:24:39;;;;;;;1.50;0.93;;;22.40;56.80;;;;;;4974534;28;20744;-76
2021/03/31 09:27:08;;;;;;;1.50;0.90;;;22.50;56.20;;;;;;4981356;28;20491;-77
2021/03/31 09:29:36;;;;;;;1.50;0.90;;;22.60;56.70;;;;;;4982216;28;20554;-76
2021/03/31 09:32:05;;;;;;;1.50;0.90;;;22.70;56.10;;;;;;4980000;28;20516;-78
2021/03/31 09:34:35;;;;;;;1.47;0.90;;;22.80;56.00;;;;;;4977748;28;20458;-79
2021/03/31 09:37:05;;;;;;;1.50;0.90;;;22.90;56.20;;;;;;4972778;28;20476;-81
2021/03/31 09:39:46;;;;;;;1.50;0.90;;;23.00;55.80;;;;;;4985110;28;20470;-81
2021/03/31 09:42:18;;;;;;;1.50;1.00;;;23.10;55.90;;;;;;4987457;28;20499;-82
2021/03/31 09:44:46;;;;;;;1.50;1.00;;;23.30;55.80;;;;;;4975616;28;20470;-79
2021/03/31 09:47:15;;;;;;;1.50;0.90;;;23.40;56.10;;;;;;4983475;28;20930;-77
2021/03/31 09:49:45;;;;;;;1.50;1.10;;;23.50;55.00;;;;;;4981938;28;21066;-77
2021/03/31 09:52:14;;;;;;;1.50;0.87;;;23.60;56.30;;;;;;4970714;28;20492;-78
2021/03/31 09:54:44;;;;;;;1.50;1.10;;;23.80;54.90;;;;;;4978240;28;20472;-80
2021/03/31 09:57:14;;;;;;;1.50;0.90;;;23.90;55.50;;;;;;4988583;28;20486;-78
2021/03/31 09:59:42;;;;;;;1.40;0.87;;;24.00;54.90;;;;;;4975617;28;20918;-80
2021/03/31 10:02:11;;;;;;;1.50;0.90;;;24.20;54.00;;;;;;4980660;28;20492;-79
2021/03/31 10:04:41;;;;;;;1.50;0.87;;;24.30;54.30;;;;;;4979264;28;20767;-79
2021/03/31 10:07:21;;;;;;;1.50;0.90;;;24.40;53.70;;;;;;4974327;28;20546;-78
2021/03/31 10:09:53;;;;;;;1.50;0.90;;;24.50;53.70;;;;;;4975020;28;20702;-80
2021/03/31 10:12:25;;;;;;;1.50;0.90;;;24.50;53.90;;;;;;4973443;28;20492;-79
2021/03/31 10:14:55;;;;;;;1.43;0.90;;;24.60;53.30;;;;;;4974386;28;20465;-78
2021/03/31 10:17:24;;;;;;;1.50;0.90;;;24.70;53.90;;;;;;4972648;28;20940;-77
2021/03/31 10:19:52;;;;;;;1.77;1.37;;;24.80;54.20;;;;;;4967146;28;20798;-75
2021/03/31 10:22:20;;;;;;;1.50;0.90;;;25.00;53.60;;;;;;4967656;28;20557;-79
2021/03/31 10:24:48;;;;;;;1.40;0.80;;;25.10;53.10;;;;;;4973847;28;20936;-79
2021/03/31 10:27:17;;;;;;;1.50;0.90;;;25.30;53.30;;;;;;4982549;28;20973;-78
2021/03/31 10:29:49;;;;;;;1.50;0.90;;;25.40;53.30;;;;;;4983218;28;20474;-79
2021/03/31 10:32:17;;;;;;;1.50;0.90;;;25.50;52.80;;;;;;4982359;28;20492;-78
2021/03/31 10:34:47;;;;;;;1.50;0.90;;;25.50;52.80;;;;;;4978612;28;20499;-78
2021/03/31 10:37:25;;;;;;;1.50;0.90;;;25.60;51.90;;;;;;4977267;28;20530;-76
2021/03/31 10:48:31;;;;;;;1.50;0.90;;;26.00;51.80;;;;;;4965349;28;20503;-79
2021/03/31 10:51:03;;;;;;;1.50;1.00;;;26.20;52.40;;;;;;4960232;28;20572;-81
2021/03/31 10:53:36;;;;;;;1.47;0.80;;;26.30;51.00;;;;;;4998206;28;20572;-82
2021/03/31 10:56:04;;;;;;;1.50;0.90;;;26.30;50.80;;;;;;4967123;28;20755;-80
2021/03/31 10:58:32;;;;;;;1.50;0.80;;;26.40;51.40;;;;;;4998470;28;20493;-81
2021/03/31 11:00:58;;;;;;;1.50;0.80;;;26.50;50.00;;;;;;4961473;28;20476;-81
2021/03/31 11:03:28;;;;;;;1.50;0.90;;;26.60;50.00;;;;;;4997202;28;20496;-81
2021/03/31 11:05:55;;;;;;;1.50;0.90;;;26.70;50.60;;;;;;4964716;28;20548;-81
2021/03/31 11:08:23;;;;;;;1.50;0.90;;;26.80;50.20;;;;;;5004850;28;20984;-81
2021/03/31 11:10:51;;;;;;;1.50;0.90;;;27.00;51.20;;;;;;4960994;28;20613;-80
2021/03/31 11:13:18;;;;;;;1.50;0.80;;;27.10;50.00;;;;;;4964091;28;20575;-79
2021/03/31 11:15:50;;;;;;;1.50;0.90;;;27.30;50.20;;;;;;4962836;28;20916;-81
2021/03/31 11:18:24;;;;;;;1.50;0.80;;;27.60;50.80;;;;;;4955535;28;20497;-80
2021/03/31 11:26:22;;;;;;;1.50;0.90;;;27.70;48.10;;;;;;4979108;28;20816;-80
2021/03/31 11:28:50;;;;;;;1.50;0.90;;;27.80;48.50;;;;;;4990642;28;20522;-78
2021/03/31 11:31:16;;;;;;;1.50;0.80;;;27.90;48.30;;;;;;4989030;28;20522;-79
2021/03/31 11:33:43;;;;;;;1.50;0.90;;;28.00;50.50;;;;;;4978189;28;20493;-82
2021/03/31 11:36:12;;;;;;;1.47;0.87;;;28.10;49.50;;;;;;4965404;28;20487;-81
2021/03/31 11:38:40;;;;;;;1.50;0.80;;;28.30;48.80;;;;;;4992589;28;20959;-82
2021/03/31 11:41:08;;;;;;;1.50;0.90;;;28.40;49.10;;;;;;4969844;28;20482;-79
2021/03/31 11:43:40;;;;;;;1.50;0.90;;;28.50;48.70;;;;;;4984085;28;20888;-80
2021/03/31 11:46:09;;;;;;;1.47;0.87;;;28.50;49.50;;;;;;4967089;28;20503;-79
2021/03/31 11:48:36;;;;;;;1.50;0.90;;;28.50;48.10;;;;;;4981408;28;20496;-80
2021/03/31 11:51:03;;;;;;;1.50;0.90;;;28.50;48.00;;;;;;4961793;28;20587;-80
2021/03/31 11:53:30;;;;;;;1.47;0.80;;;28.60;47.70;;;;;;4997183;28;20568;-77
2021/03/31 11:55:58;;;;;;;1.47;0.80;;;28.50;47.10;;;;;;4957043;28;20934;-80
2021/03/31 11:58:25;;;;;;;1.47;0.80;;;28.50;46.70;;;;;;4994877;28;20489;-80
2021/03/31 12:00:52;;;;;;;1.43;0.80;;;28.40;45.80;;;;;;4966347;28;20466;-78
2021/03/31 12:03:21;;;;;;;1.50;0.80;;;28.40;47.70;;;;;;5002956;28;20485;-80
2021/03/31 12:05:50;;;;;;;1.50;0.90;;;28.40;47.60;;;;;;4958598;28;20902;-81
2021/03/31 12:08:17;;;;;;;1.50;0.90;;;28.40;47.10;;;;;;4986811;28;20894;-81
2021/03/31 12:10:46;;;;;;;1.43;0.80;;;28.60;47.50;;;;;;4967822;28;20473;-80
2021/03/31 12:13:14;;;;;;;2.07;1.87;;;28.70;47.40;;;;;;4958309;28;20676;-80
2021/03/31 12:15:41;;;;;;;1.43;0.80;;;28.60;45.10;;;;;;4970938;28;20469;-78
2021/03/31 12:18:08;;;;;;;1.70;1.20;;;28.50;45.40;;;;;;4978699;28;20496;-81
2021/03/31 12:20:35;;;;;;;1.47;0.80;;;28.50;45.90;;;;;;4965152;28;20470;-79
2021/03/31 12:23:02;;;;;;;1.50;0.80;;;28.50;44.90;;;;;;4990852;28;20552;-81
2021/03/31 12:25:29;;;;;;;1.43;0.80;;;28.60;47.90;;;;;;4960463;28;20473;-80
2021/03/31 12:27:59;;;;;;;1.47;0.90;;;28.70;45.40;;;;;;4989985;28;20484;-82
2021/03/31 12:30:29;;;;;;;1.43;0.80;;;28.60;44.70;;;;;;4977442;28;20950;-80
2021/03/31 12:32:56;;;;;;;1.47;0.80;;;28.60;46.00;;;;;;4993752;28;20556;-80
2021/03/31 12:35:25;;;;;;;1.43;0.80;;;28.60;46.30;;;;;;4965916;28;20469;-81
2021/03/31 12:37:54;;;;;;;1.47;0.80;;;28.50;45.10;;;;;;4994208;28;20480;-79
2021/03/31 12:40:23;;;;;;;1.50;0.80;;;28.40;45.00;;;;;;4966547;28;20546;-81
2021/03/31 12:42:51;;;;;;;1.47;0.80;;;28.50;46.40;;;;;;4990588;28;21159;-82
2021/03/31 12:45:19;;;;;;;1.80;1.00;;;28.60;45.10;;;;;;4966465;28;20468;-82
2021/03/31 12:47:47;;;;;;;1.43;0.80;;;28.60;46.40;;;;;;4979924;28;21114;-81
2021/03/31 12:50:16;;;;;;;1.50;0.90;;;28.80;47.80;;;;;;4972476;28;20465;-79
2021/03/31 12:52:46;;;;;;;1.47;0.80;;;28.90;44.70;;;;;;4981693;28;20483;-81
2021/03/31 12:55:15;;;;;;;1.50;0.90;;;28.90;44.80;;;;;;4973216;28;20469;-80
2021/03/31 12:57:42;;;;;;;1.50;1.10;;;29.10;44.80;;;;;;4991961;28;20471;-81
2021/03/31 13:00:09;;;;;;;1.47;0.83;;;29.20;45.40;;;;;;4967723;28;20686;-81
2021/03/31 13:02:35;;;;;;;1.50;0.80;;;29.40;46.80;;;;;;4989035;28;20494;-82
2021/03/31 13:05:02;;;;;;;1.47;0.80;;;29.60;44.20;;;;;;4978165;28;20473;-79
2021/03/31 13:07:30;;;;;;;1.50;0.80;;;29.70;43.80;;;;;;4985322;28;20986;-81
2021/03/31 13:09:58;;;;;;;1.47;0.80;;;29.60;43.00;;;;;;4972219;28;21075;-82
2021/03/31 13:12:34;;;;;;;1.43;0.90;;;29.40;44.20;;;;;;4978508;28;20943;-81